Warning: Javascript must be enabled to use all the features on this page!


Page Loading - Please Wait...

Click to hideNews Bulletins

Peak Streamflow for the Nation

USGS 08177500 Coleto Ck nr Victoria, TX

Victoria County, Texas
Hydrologic Unit Code 12100204
Latitude  28°43'51", Longitude  97°08'18" NAD27
Drainage area 500  square miles
Contributing drainage area 500  square miles
Gage datum 44.18 feet above NGVD29
Output formats
Table
Graph
Tab-separated file
peakfq (watstore) format
Reselect output format
Water
Year
Date Gage
Height
(feet)
Stream-
flow
(cfs)
1936 1936-07-01 32.20  
1939 1939-07-12 11.40 8,820
1940 1940-06-30 22.05 39,200
1941 1940-11-25 24.25 48,200
1942 1942-07-06 20.75 34,300
1943 1943-05-31 6.76 2,530
1944 1944-03-18 13.08 12,200
1945 1945-04-20 7.09 2,700
1946 1946-05-23 12.02 10,000
1947 1946-10-16 36.64 89,000
1948 1948-05-24 8.78 4,260
1949 1949-04-26 6.89 2,700
1950 1949-10-26 6.43 2,290
1951 1951-09-13 11.60 9,440
1952 1952-05-28 15.18 17,300
1953 1953-08-30 13.73 14,400
1954 1954-05-25 3.33 731
1967 1967-09-22 42.00 236,0007
1976 1976-04-20 37.85  
1979 1979-05-11 19.005 15,5002
1980 1980-01-20 15.72 8,550
1981 1981-09-01 19.73 16,5006
1982 1981-10-31 27.02 39,1006
1983 1982-11-19 19.50 15,9006
1984 1984-03-12 18.82 14,4006
1985 1985-07-04 16.35 9,5906
1986 1986-06-13 8.17 1,0906
1987 1987-06-11 19.15 15,1006
1988 1987-11-25 5.32 2316
1989 1989-04-30 4.23 37.06
1990 1990-07-17 20.86 19,2006
1991 1991-04-05 28.00 37,0006
1992 1992-04-17 27.68 41,7006
1993 1993-05-05 23.27 25,9006
1994 1994-05-14 14.00 6,0206
1995 1994-10-18 28.41 44,7006
1996 1996-08-30 4.95 23.06
1997 1997-04-04 32.05 50,1006
1998 1997-10-13 26.03 28,5006
1999 1998-10-18 23.25 22,4006
2000 2000-06-12 6.75 5046
2001 2001-09-01 22.39 20,2006
2002 2001-12-02 17.97 11,5006
2003 2002-10-25 19.97 15,8006
2004 2004-05-14 18.52 13,2006
2005 2004-11-21 28.93 41,7006
2006 2006-06-01 4.94 1176
2007 2007-07-02 21.67 19,3006
2008 2008-03-06 4.28 33.06
2009 2009-01-20 4.00 16.06
2010 2010-05-15 20.41 16,7006
2011 2011-01-17 6.89 5626
2012 2012-07-11 7.12 6406
2013 2013-05-25 9.68 2,1306
2014 2014-01-09 4.27 22.06
2015 2015-06-18 19.79 15,4006
2016 2016-03-10 16.01 9,2106
2017 2017-08-26 24.02 24,7006
2018 2018-09-15 8.37 1,2906
2019 2018-12-08 19.32 14,3006
2020 2020-04-07 4.48 22.26
2021 2021-07-09 26.16 18,8006
?
  Peak Gage-Height Qualification Codes.
?
  Peak Streamflow Qualification Codes.